Time;durP1;ratioP1;P1;durP2;ratioP2;P2;SDS_P1;SDS_P2;PMS_P1;PMS_P2;Temp;Humidity;BMP_temperature;BMP_pressure;BME280_temperature;BME280_humidity;BME280_pressure;Samples;Min_cycle;Max_cycle;Signal;HPM_P1;HPM_P2
2022/04/25 00:00:21;;;;;;;;;;;;;;;25.95;36.36;93245.97;5047119;28;9134;-60
2022/04/25 00:02:50;;;;;;;;;;;;;;;25.98;35.80;93246.91;5042210;28;8824;-60
2022/04/25 00:05:16;;;;;;;;;;;;;;;25.99;35.67;93229.81;5046946;28;7259;-60
2022/04/25 00:07:42;;;;;;;;;;;;;;;25.97;36.08;93229.63;5030917;28;9023;-60
2022/04/25 00:10:17;;;;;;;;;;;;;;;25.97;36.77;93232.38;5040037;28;7230;-60
2022/04/25 00:12:43;;;;;;;;;;;;;;;25.93;36.26;93229.22;5040377;28;7009;-60
2022/04/25 00:15:09;;;;;;;;;;;;;;;25.95;36.20;93232.19;5046180;28;8686;-60
2022/04/25 00:17:35;;;;;;;;;;;;;;;25.96;36.29;93225.41;5035444;28;9227;-60
2022/04/25 00:20:07;;;;;;;;;;;;;;;25.94;36.66;93222.47;5028180;28;7515;-60
2022/04/25 00:22:36;;;;;;;;;;;;;;;25.93;36.74;93220.97;5039487;28;7300;-60
2022/04/25 00:25:02;;;;;;;;;;;;;;;25.92;36.08;93221.50;5046128;28;9116;-60
2022/04/25 00:27:34;;;;;;;;;;;;;;;25.92;36.68;93221.50;5044752;28;7262;-60
2022/04/25 00:30:02;;;;;;;;;;;;;;;25.90;35.86;93222.03;5038021;28;7312;-60
2022/04/25 00:32:28;;;;;;;;;;;;;;;25.91;36.06;93239.31;5042541;28;7371;-60
2022/04/25 00:34:54;;;;;;;;;;;;;;;25.92;36.21;93235.28;5051929;28;9356;-60
2022/04/25 00:37:20;;;;;;;;;;;;;;;25.88;36.14;93235.63;5042549;28;8298;-61
2022/04/25 00:39:46;;;;;;;;;;;;;;;25.88;36.63;93224.59;5041761;28;7781;-60
2022/04/25 00:42:14;;;;;;;;;;;;;;;25.89;35.71;93236.34;5051786;28;7278;-60
2022/04/25 00:44:41;;;;;;;;;;;;;;;25.89;36.21;93237.09;5037853;28;7896;-60
2022/04/25 00:47:10;;;;;;;;;;;;;;;25.83;36.42;93236.50;5047066;28;7403;-60
2022/04/25 00:49:41;;;;;;;;;;;;;;;25.84;36.47;93235.22;5034217;28;7173;-60
2022/04/25 00:52:13;;;;;;;;;;;;;;;25.83;36.14;93239.28;5042327;28;6992;-60
2022/04/25 00:54:41;;;;;;;;;;;;;;;25.85;36.09;93241.47;5046848;28;7260;-60
2022/04/25 00:57:17;;;;;;;;;;;;;;;25.83;36.55;93238.53;5038256;28;7454;-60
2022/04/25 00:59:44;;;;;;;;;;;;;;;25.84;36.37;93234.47;5034282;28;7265;-60
2022/04/25 01:02:10;;;;;;;;;;;;;;;25.83;36.09;93239.28;5032014;28;8074;-59
2022/04/25 01:04:37;;;;;;;;;;;;;;;25.85;36.47;93238.72;5030617;28;7130;-60
2022/04/25 01:07:37;;;;;;;;;;;;;;;25.82;36.34;93239.78;5044990;28;8154;-60
2022/04/25 01:10:04;;;;;;;;;;;;;;;25.79;36.56;93233.38;4969165;28;7383;-60
2022/04/25 01:12:40;;;;;;;;;;;;;;;25.82;36.03;93248.78;4969893;28;8730;-60
2022/04/25 01:15:11;;;;;;;;;;;;;;;25.81;36.03;93230.81;4953671;28;7284;-60
2022/04/25 01:17:40;;;;;;;;;;;;;;;25.80;36.17;93234.84;4965873;28;9070;-60
2022/04/25 01:20:19;;;;;;;;;;;;;;;25.78;36.30;93242.16;4969058;28;9059;-60
2022/04/25 01:27:15;;;;;;;;;;;;;;;25.78;36.27;93242.16;4951689;28;7218;-60
2022/04/25 01:29:01;;;;;;;;;;;;;;;25.75;36.16;93241.22;4952704;28;7481;-60
2022/04/25 01:31:37;;;;;;;;;;;;;;;25.72;36.20;93238.81;4934524;28;7244;-60
2022/04/25 01:34:04;;;;;;;;;;;;;;;25.74;36.48;93242.50;4935557;28;9068;-60
2022/04/25 01:36:31;;;;;;;;;;;;;;;25.74;36.21;93245.25;4937455;28;9472;-60
2022/04/25 01:38:58;;;;;;;;;;;;;;;25.74;36.87;93248.00;4933742;29;6996;-60
2022/04/25 01:41:54;;;;;;;;;;;;;;;25.72;36.84;93238.81;4933399;29;7502;-60
2022/04/25 01:44:20;;;;;;;;;;;;;;;25.71;36.17;93243.56;4874210;29;7061;-60
2022/04/25 01:46:59;;;;;;;;;;;;;;;25.69;36.71;93243.38;4881615;29;7300;-60
2022/04/25 01:49:39;;;;;;;;;;;;;;;25.67;36.10;93240.41;4896270;29;8945;-60
2022/04/25 01:52:26;;;;;;;;;;;;;;;25.69;35.93;93245.38;4879912;29;9114;-60
2022/04/25 01:55:12;;;;;;;;;;;;;;;25.69;36.85;93248.13;4892921;29;7683;-60
2022/04/25 01:57:49;;;;;;;;;;;;;;;25.64;36.76;93240.78;4896042;29;9007;-60
2022/04/25 02:00:15;;;;;;;;;;;;;;;25.65;36.32;93248.47;4894607;29;7594;-60
2022/04/25 02:02:43;;;;;;;;;;;;;;;25.65;36.35;93254.00;4891489;29;7310;-60
2022/04/25 02:05:09;;;;;;;;;;;;;;;25.61;36.68;93253.59;4954606;28;9286;-60
2022/04/25 02:07:44;;;;;;;;;;;;;;;25.62;36.91;93257.09;4956164;28;7035;-60
2022/04/25 02:10:26;;;;;;;;;;;;;;;25.63;36.21;93259.31;4964884;28;7436;-60
2022/04/25 02:12:52;;;;;;;;;;;;;;;25.62;36.15;93263.31;4952784;28;9370;-60
2022/04/25 02:15:20;;;;;;;;;;;;;;;25.63;36.63;93270.31;4938821;28;9132;-60
2022/04/25 02:17:57;;;;;;;;;;;;;;;25.63;36.80;93277.84;4954320;28;7011;-60
2022/04/25 02:20:25;;;;;;;;;;;;;;;25.63;36.85;93270.31;4986485;28;7267;-60
2022/04/25 02:22:53;;;;;;;;;;;;;;;25.63;36.67;93275.06;5051850;28;9092;-61
2022/04/25 02:25:20;;;;;;;;;;;;;;;25.60;36.17;93274.13;5052048;28;7163;-60
2022/04/25 02:27:50;;;;;;;;;;;;;;;25.60;36.75;93273.41;5048867;28;6992;-60
2022/04/25 02:30:57;;;;;;;;;;;;;;;25.60;35.95;93276.16;5032633;28;7001;-60
2022/04/25 02:33:36;;;;;;;;;;;;;;;25.61;36.93;93283.88;5032464;28;7284;-60
2022/04/25 02:36:21;;;;;;;;;;;;;;;25.60;36.89;93281.69;5033232;28;8915;-60
2022/04/25 02:38:48;;;;;;;;;;;;;;;25.56;37.04;93282.00;5049253;28;8823;-60
2022/04/25 02:41:33;;;;;;;;;;;;;;;25.54;36.41;93284.53;5049785;28;7008;-60
2022/04/25 02:44:01;;;;;;;;;;;;;;;25.56;36.63;93289.50;5047439;28;7062;-60
2022/04/25 02:46:34;;;;;;;;;;;;;;;25.55;36.19;93288.78;5033893;28;7490;-60
2022/04/25 02:49:10;;;;;;;;;;;;;;;25.56;36.16;93297.78;5047047;28;9153;-60
2022/04/25 02:51:48;;;;;;;;;;;;;;;25.55;36.18;93277.03;5043029;28;7189;-60
2022/04/25 02:54:25;;;;;;;;;;;;;;;25.52;36.41;93287.09;5047884;28;8806;-60
2022/04/25 02:56:53;;;;;;;;;;;;;;;25.50;36.15;93284.16;5045958;28;9040;-60
2022/04/25 02:59:20;;;;;;;;;;;;;;;25.44;36.45;93280.78;5036140;28;9057;-60
2022/04/25 03:01:49;;;;;;;;;;;;;;;25.51;36.54;93290.41;5040619;28;7988;-60
2022/04/25 03:04:17;;;;;;;;;;;;;;;25.51;36.69;93293.91;5040247;28;7233;-60
2022/04/25 03:06:44;;;;;;;;;;;;;;;25.49;36.58;93288.16;5044547;28;7195;-60
2022/04/25 03:09:38;;;;;;;;;;;;;;;25.50;36.87;93297.91;5048031;28;8790;-60
2022/04/25 03:12:19;;;;;;;;;;;;;;;25.48;36.46;93300.47;4954058;28;8025;-60
2022/04/25 03:14:47;;;;;;;;;;;;;;;25.48;36.56;93303.22;4966429;28;9369;-60
2022/04/25 03:17:44;;;;;;;;;;;;;;;25.45;36.46;93293.25;4964452;28;8840;-60
2022/04/25 03:20:34;;;;;;;;;;;;;;;25.47;36.37;93296.22;4898453;29;7734;-60
2022/04/25 03:23:01;;;;;;;;;;;;;;;25.46;36.81;93299.50;4911011;29;7260;-60
2022/04/25 03:25:56;;;;;;;;;;;;;;;25.45;36.93;93293.25;4896774;29;7200;-60
2022/04/25 03:28:24;;;;;;;;;;;;;;;25.45;36.46;93296.03;4908205;29;9773;-60
2022/04/25 03:30:50;;;;;;;;;;;;;;;25.41;36.61;93287.31;4898407;29;9067;-60
2022/04/25 03:33:31;;;;;;;;;;;;;;;25.41;36.48;93287.31;4909685;29;7084;-60
2022/04/25 03:35:57;;;;;;;;;;;;;;;25.41;36.65;93299.09;4913346;29;7359;-60
2022/04/25 03:38:42;;;;;;;;;;;;;;;25.42;37.03;93294.34;4897375;29;6986;-60
2022/04/25 03:41:09;;;;;;;;;;;;;;;25.41;36.08;93293.56;4905266;29;9084;-60
2022/04/25 03:43:35;;;;;;;;;;;;;;;25.41;36.76;93295.59;4909420;29;9397;-60
2022/04/25 03:46:01;;;;;;;;;;;;;;;25.41;36.34;93296.34;4912748;29;9575;-60
2022/04/25 03:48:32;;;;;;;;;;;;;;;25.37;36.68;93292.44;4914748;28;8338;-60
2022/04/25 03:51:00;;;;;;;;;;;;;;;25.39;36.58;93289.88;4962922;28;9227;-61
2022/04/25 03:53:26;;;;;;;;;;;;;;;25.37;36.81;93289.69;4962167;28;9106;-60
2022/04/25 03:58:39;;;;;;;;;;;;;;;25.37;36.81;93312.44;5036642;28;7265;-60
2022/04/25 04:01:05;;;;;;;;;;;;;;;25.35;36.62;93306.00;5029733;28;7165;-60
2022/04/25 04:03:34;;;;;;;;;;;;;;;25.35;36.25;93312.25;5035881;28;7198;-60
2022/04/25 04:06:00;;;;;;;;;;;;;;;25.36;36.95;93312.97;5038111;28;7071;-60
2022/04/25 04:08:26;;;;;;;;;;;;;;;25.34;36.89;93310.75;5044554;28;7263;-60
2022/04/25 04:10:52;;;;;;;;;;;;;;;25.33;36.45;93316.78;5047100;28;9261;-60
2022/04/25 04:13:19;;;;;;;;;;;;;;;25.35;36.22;93322.50;5031118;28;7269;-60
2022/04/25 04:15:45;;;;;;;;;;;;;;;25.39;36.12;93331.16;5042810;28;7278;-60
2022/04/25 04:18:41;;;;;;;;;;;;;;;25.43;36.21;93321.34;5051161;28;7212;-60
2022/04/25 04:21:09;;;;;;;;;;;;;;;25.42;36.42;93316.38;4955575;28;7306;-60
2022/04/25 04:23:37;;;;;;;;;;;;;;;25.42;36.65;93327.38;4940086;28;9458;-60
2022/04/25 04:26:13;;;;;;;;;;;;;;;25.38;36.77;93321.44;4946751;28;7388;-60
2022/04/25 04:28:40;;;;;;;;;;;;;;;25.38;36.35;93326.94;4950836;28;9052;-60
2022/04/25 04:31:06;;;;;;;;;;;;;;;25.40;35.92;93332.66;4944826;28;7235;-60
2022/04/25 04:33:32;;;;;;;;;;;;;;;25.39;36.70;93339.44;4949963;28;7256;-60
2022/04/25 04:38:52;;;;;;;;;;;;;;;25.38;36.68;93338.69;4970198;28;9118;-60
2022/04/25 04:41:44;;;;;;;;;;;;;;;25.38;36.83;93337.97;4941754;29;7218;-60
2022/04/25 04:44:28;;;;;;;;;;;;;;;25.41;36.67;93348.63;4959410;28;6998;-60
2022/04/25 04:46:55;;;;;;;;;;;;;;;25.38;36.51;93346.94;4953214;28;7441;-60
2022/04/25 04:49:29;;;;;;;;;;;;;;;25.36;36.58;93351.50;4953826;28;7350;-60
2022/04/25 04:51:59;;;;;;;;;;;;;;;25.37;36.94;93358.50;4950478;28;7092;-60
2022/04/25 04:54:26;;;;;;;;;;;;;;;25.39;35.92;93359.44;4963202;28;7551;-60
2022/04/25 04:56:59;;;;;;;;;;;;;;;25.40;36.64;93362.94;4955987;28;8719;-60
2022/04/25 04:59:25;;;;;;;;;;;;;;;25.33;36.76;93353.31;5044626;28;9121;-60
2022/04/25 05:01:51;;;;;;;;;;;;;;;25.36;35.97;93362.50;5050008;28;9440;-60
2022/04/25 05:04:17;;;;;;;;;;;;;;;25.36;35.99;93354.25;5034650;28;8769;-60
2022/04/25 05:06:47;;;;;;;;;;;;;;;25.36;36.36;93351.50;5033607;28;7651;-60
2022/04/25 05:09:13;;;;;;;;;;;;;;;25.33;36.67;93358.09;5056653;28;7215;-60
2022/04/25 05:11:40;;;;;;;;;;;;;;;25.28;36.71;93356.94;5046288;28;9084;-60
2022/04/25 05:14:09;;;;;;;;;;;;;;;25.30;36.21;93364.66;5046662;28;7214;-60
2022/04/25 05:16:35;;;;;;;;;;;;;;;25.29;36.75;93369.41;5046732;28;9288;-61
2022/04/25 05:19:03;;;;;;;;;;;;;;;25.30;36.56;93370.16;5046699;28;9022;-60
2022/04/25 05:21:29;;;;;;;;;;;;;;;25.27;36.50;93365.72;5047138;28;9212;-61
2022/04/25 05:23:55;;;;;;;;;;;;;;;25.31;36.74;93377.16;5044051;28;7299;-61
2022/04/25 05:26:22;;;;;;;;;;;;;;;25.32;36.02;93373.84;5039168;28;9055;-61
2022/04/25 05:28:51;;;;;;;;;;;;;;;25.29;36.16;93374.91;5052252;28;6856;-61
2022/04/25 05:31:17;;;;;;;;;;;;;;;25.28;36.58;93370.69;5040205;28;7283;-61
2022/04/25 05:33:46;;;;;;;;;;;;;;;25.30;36.16;93373.66;5040349;28;9194;-61
2022/04/25 05:36:15;;;;;;;;;;;;;;;25.27;36.45;93360.22;5041291;28;7287;-61
2022/04/25 05:38:43;;;;;;;;;;;;;;;25.26;36.26;93373.25;5047048;28;7230;-61
2022/04/25 05:41:14;;;;;;;;;;;;;;;25.26;36.12;93375.25;5044332;28;9133;-61
2022/04/25 05:43:40;;;;;;;;;;;;;;;25.26;36.46;93378.00;5050805;28;7693;-60
2022/04/25 05:46:10;;;;;;;;;;;;;;;25.21;36.50;93376.84;5051545;28;7323;-60
2022/04/25 05:54:18;;;;;;;;;;;;;;;25.17;36.63;93381.19;5036302;28;7617;-61
2022/04/25 05:56:46;;;;;;;;;;;;;;;25.20;36.59;93377.38;5051538;28;9074;-62
2022/04/25 05:59:22;;;;;;;;;;;;;;;25.24;36.26;93380.53;5045533;28;7882;-61
2022/04/25 06:01:48;;;;;;;;;;;;;;;25.30;35.99;93381.91;5035313;28;7344;-61
2022/04/25 06:04:16;;;;;;;;;;;;;;;25.37;36.76;93388.78;5045672;28;9156;-61
2022/04/25 06:07:13;;;;;;;;;;;;;;;25.46;36.12;93393.88;5065834;28;9564;-61
2022/04/25 06:09:41;;;;;;;;;;;;;;;25.49;36.01;93390.03;4961318;28;7701;-61
2022/04/25 06:12:33;;;;;;;;;;;;;;;25.59;36.73;93395.84;4962745;28;7001;-59
2022/04/25 06:15:05;;;;;;;;;;;;;;;25.62;36.40;93395.50;4965900;28;9207;-60
2022/04/25 06:17:32;;;;;;;;;;;;;;;25.68;36.72;93398.88;4985351;28;6988;-61
2022/04/25 06:20:01;;;;;;;;;;;;;;;25.72;35.98;93399.28;4977631;28;6965;-61
2022/04/25 06:22:27;;;;;;;;;;;;;;;25.76;35.55;93401.69;4964025;28;7244;-61
2022/04/25 06:24:55;;;;;;;;;;;;;;;25.78;36.36;93402.66;4974506;28;9059;-61
2022/04/25 06:27:22;;;;;;;;;;;;;;;25.81;36.18;93404.34;4967447;28;9266;-60
2022/04/25 06:29:53;;;;;;;;;;;;;;;25.83;36.36;93410.06;4977677;28;7273;-61
2022/04/25 06:32:36;;;;;;;;;;;;;;;25.86;36.34;93402.75;4962053;28;7411;-61
2022/04/25 06:35:17;;;;;;;;;;;;;;;25.89;36.67;93413.41;4962414;28;7259;-61
2022/04/25 06:38:10;;;;;;;;;;;;;;;25.92;36.58;93408.84;4976858;28;9420;-60
2022/04/25 06:40:57;;;;;;;;;;;;;;;25.93;36.43;93413.06;4971392;28;7734;-61
2022/04/25 06:43:26;;;;;;;;;;;;;;;25.96;35.57;93407.25;4968636;28;7259;-60
2022/04/25 06:45:54;;;;;;;;;;;;;;;25.98;35.61;93412.97;4988844;28;7120;-59
2022/04/25 06:48:22;;;;;;;;;;;;;;;25.97;36.08;93416.22;5057834;28;7061;-60
2022/04/25 06:51:03;;;;;;;;;;;;;;;25.99;36.20;93414.41;5033047;28;9229;-59
2022/04/25 06:53:34;;;;;;;;;;;;;;;26.01;36.30;93430.44;5051022;28;9301;-59
2022/04/25 06:56:08;;;;;;;;;;;;;;;25.99;35.73;93425.44;5044606;28;9517;-60
2022/04/25 06:59:03;;;;;;;;;;;;;;;26.01;36.22;93422.88;5039572;28;8736;-59
2022/04/25 07:01:29;;;;;;;;;;;;;;;26.01;35.87;93422.88;4985586;28;9118;-60
2022/04/25 07:03:55;;;;;;;;;;;;;;;25.99;35.84;93422.69;4986023;28;8742;-60
2022/04/25 07:06:30;;;;;;;;;;;;;;;26.00;35.99;93426.94;5000934;28;7198;-59
2022/04/25 07:08:56;;;;;;;;;;;;;;;26.00;36.26;93428.94;5000937;28;8177;-60
2022/04/25 07:11:55;;;;;;;;;;;;;;;25.99;36.66;93424.72;5005942;28;9448;-59
2022/04/25 07:14:24;;;;;;;;;;;;;;;25.97;36.68;93436.25;4951085;28;7255;-60
2022/04/25 07:16:54;;;;;;;;;;;;;;;25.97;36.10;93430.75;4942534;28;9193;-61
2022/04/25 07:19:20;;;;;;;;;;;;;;;25.96;36.06;93429.28;4955195;28;7242;-60
2022/04/25 07:30:07;;;;;;;;;;;;;;;25.91;36.27;93432.91;4961850;28;7282;-60
2022/04/25 07:32:33;;;;;;;;;;;;;;;25.92;36.52;93442.66;4951296;28;7370;-60
2022/04/25 07:35:02;;;;;;;;;;;;;;;25.92;36.66;93422.63;4946667;28;8767;-61
2022/04/25 07:37:28;;;;;;;;;;;;;;;25.91;36.08;93443.19;4952899;28;7530;-61
2022/04/25 07:39:56;;;;;;;;;;;;;;;25.88;36.14;93433.25;4979943;28;7697;-60
2022/04/25 07:42:22;;;;;;;;;;;;;;;25.88;36.57;93433.97;4989927;28;9288;-61
2022/04/25 07:44:48;;;;;;;;;;;;;;;25.84;36.31;93430.06;4989325;28;6946;-61
2022/04/25 07:47:14;;;;;;;;;;;;;;;25.87;36.65;93442.78;4992329;28;9106;-61
2022/04/25 07:49:41;;;;;;;;;;;;;;;25.87;36.32;93442.78;4992843;28;8783;-61
2022/04/25 07:52:07;;;;;;;;;;;;;;;25.87;37.13;93440.75;5038833;28;9221;-61
2022/04/25 07:54:34;;;;;;;;;;;;;;;25.86;36.64;93441.31;5032623;28;9514;-61
2022/04/25 07:57:00;;;;;;;;;;;;;;;25.85;37.14;93443.31;5056369;28;7019;-60
2022/04/25 07:59:26;;;;;;;;;;;;;;;25.84;37.35;93443.84;5029718;28;8877;-60
2022/04/25 08:01:53;;;;;;;;;;;;;;;25.83;37.10;93448.63;5044713;28;7281;-60
2022/04/25 08:04:19;;;;;;;;;;;;;;;25.83;37.34;93454.13;5038958;28;8715;-60
2022/04/25 08:06:45;;;;;;;;;;;;;;;25.82;37.84;93452.63;5037202;28;7140;-61
2022/04/25 08:09:11;;;;;;;;;;;;;;;25.82;36.98;93454.66;5038736;28;7170;-60
2022/04/25 08:11:36;;;;;;;;;;;;;;;25.81;37.10;93453.94;5028908;28;9331;-60
2022/04/25 08:19:37;;;;;;;;;;;;;;;25.79;38.02;93459.22;5034045;28;9404;-60
2022/04/25 08:22:07;;;;;;;;;;;;;;;25.80;37.50;93465.47;5042808;28;7152;-60
2022/04/25 08:24:36;;;;;;;;;;;;;;;25.81;37.61;93466.94;5028425;28;8348;-61
2022/04/25 08:27:05;;;;;;;;;;;;;;;25.79;38.04;93470.25;5029273;28;9215;-60
2022/04/25 08:29:34;;;;;;;;;;;;;;;25.79;37.87;93470.25;5040240;28;8970;-61
2022/04/25 08:32:02;;;;;;;;;;;;;;;25.80;37.93;93471.72;5028817;28;7505;-60
2022/04/25 08:34:28;;;;;;;;;;;;;;;25.79;38.28;93475.75;5034214;28;7614;-61
2022/04/25 08:36:54;;;;;;;;;;;;;;;25.79;37.72;93477.75;5047883;28;9656;-61
2022/04/25 08:39:21;;;;;;;;;;;;;;;25.78;37.35;93477.03;5043800;28;7199;-60
2022/04/25 08:42:01;;;;;;;;;;;;;;;25.79;38.16;93480.53;5043416;28;7235;-60
2022/04/25 08:44:30;;;;;;;;;;;;;;;25.81;38.08;93486.25;5047705;28;9366;-60
2022/04/25 08:46:59;;;;;;;;;;;;;;;25.79;38.18;93481.28;5035843;28;7829;-61
2022/04/25 08:49:27;;;;;;;;;;;;;;;25.79;37.64;93480.53;5036646;28;9042;-60
2022/04/25 08:52:06;;;;;;;;;;;;;;;25.80;38.60;93485.50;5034327;28;9132;-61
2022/04/25 08:54:36;;;;;;;;;;;;;;;25.81;38.20;93481.47;5034101;28;6986;-60
2022/04/25 08:57:10;;;;;;;;;;;;;;;25.80;37.61;93485.50;5036683;28;9460;-60
2022/04/25 08:59:37;;;;;;;;;;;;;;;25.78;38.27;93482.53;5045016;28;7462;-61
2022/04/25 09:02:03;;;;;;;;;;;;;;;25.79;37.73;93486.78;5051344;28;7977;-61
2022/04/25 09:04:29;;;;;;;;;;;;;;;25.79;37.64;93486.78;5048640;28;9032;-61
2022/04/25 09:07:11;;;;;;;;;;;;;;;25.81;37.96;93494.50;5043583;28;8765;-61
2022/04/25 09:09:40;;;;;;;;;;;;;;;25.80;38.37;93495.75;5037108;28;8816;-61
2022/04/25 09:12:09;;;;;;;;;;;;;;;25.80;37.53;93493.75;5031785;28;9062;-61
2022/04/25 09:14:39;;;;;;;;;;;;;;;25.79;37.66;93489.53;5048918;28;7193;-59
2022/04/25 09:17:12;;;;;;;;;;;;;;;25.80;37.96;93493.00;5053134;28;7321;-60
2022/04/25 09:19:39;;;;;;;;;;;;;;;25.82;37.56;93490.44;5040833;28;8818;-61
2022/04/25 09:22:28;;;;;;;;;;;;;;;25.81;37.96;93495.25;5035300;28;7268;-61
2022/04/25 09:25:09;;;;;;;;;;;;;;;25.83;37.56;93503.72;5040944;28;7422;-60
2022/04/25 09:27:43;;;;;;;;;;;;;;;25.79;38.06;93500.56;5035966;28;6990;-60
2022/04/25 09:30:16;;;;;;;;;;;;;;;25.78;38.37;93493.53;5038173;28;7255;-60
2022/04/25 09:32:43;;;;;;;;;;;;;;;25.79;38.17;93486.78;5039267;28;8774;-61
2022/04/25 09:35:37;;;;;;;;;;;;;;;25.79;37.37;93497.06;5048655;28;7229;-60
2022/04/25 09:38:05;;;;;;;;;;;;;;;25.78;37.67;93501.06;5037888;28;7261;-61
2022/04/25 09:40:36;;;;;;;;;;;;;;;25.77;37.89;93505.84;5033731;28;9164;-61
2022/04/25 09:43:10;;;;;;;;;;;;;;;25.77;37.82;93499.59;5042359;28;7743;-61
2022/04/25 09:45:44;;;;;;;;;;;;;;;25.78;37.56;93501.81;5045513;28;8671;-60
2022/04/25 09:48:24;;;;;;;;;;;;;;;25.76;38.28;93503.63;5040364;28;7927;-61
2022/04/25 09:51:10;;;;;;;;;;;;;;;25.75;37.79;93505.63;5040893;28;9053;-61
2022/04/25 09:53:54;;;;;;;;;;;;;;;25.74;38.30;93506.91;5057116;28;9474;-61
2022/04/25 09:56:29;;;;;;;;;;;;;;;25.76;38.53;93509.13;5043414;28;7372;-61
2022/04/25 09:59:02;;;;;;;;;;;;;;;25.75;39.31;93516.63;5048491;28;8664;-60
2022/04/25 10:01:30;;;;;;;;;;;;;;;25.76;39.54;93515.38;5033352;28;7003;-60
2022/04/25 10:03:56;;;;;;;;;;;;;;;25.74;40.34;93523.44;5036129;28;9251;-60
2022/04/25 10:06:32;;;;;;;;;;;;;;;25.75;40.98;93522.16;5046241;28;8861;-60
2022/04/25 10:09:04;;;;;;;;;;;;;;;25.77;40.73;93524.38;5037628;28;7661;-60
2022/04/25 10:11:39;;;;;;;;;;;;;;;25.74;41.14;93528.94;5039159;28;6990;-60
2022/04/25 10:14:05;;;;;;;;;;;;;;;25.75;40.76;93532.44;5042431;28;9154;-60
2022/04/25 10:16:37;;;;;;;;;;;;;;;25.74;40.15;93539.97;5034303;28;7158;-60
2022/04/25 10:19:06;;;;;;;;;;;;;;;25.75;40.74;93537.94;5044618;28;9166;-60
2022/04/25 10:21:34;;;;;;;;;;;;;;;25.75;40.30;93540.72;5039770;28;7237;-60
2022/04/25 10:24:00;;;;;;;;;;;;;;;25.71;39.83;93541.00;5034825;28;7569;-60
2022/04/25 10:26:33;;;;;;;;;;;;;;;25.72;40.07;93537.00;5041121;28;7281;-60
2022/04/25 10:29:10;;;;;;;;;;;;;;;25.72;39.71;93539.75;5036182;28;7140;-60
2022/04/25 10:31:43;;;;;;;;;;;;;;;25.70;39.96;93539.53;5035708;28;7973;-60
2022/04/25 10:34:19;;;;;;;;;;;;;;;25.72;40.55;93552.78;5043854;28;9411;-60
2022/04/25 10:36:55;;;;;;;;;;;;;;;25.72;40.46;93548.00;5041083;28;6964;-60
2022/04/25 10:39:47;;;;;;;;;;;;;;;25.72;40.38;93561.78;5037314;28;9576;-60
2022/04/25 10:45:02;;;;;;;;;;;;;;;25.71;38.93;93565.81;5045511;28;7000;-61
2022/04/25 10:47:28;;;;;;;;;;;;;;;25.48;35.04;93562.00;5048012;28;8635;-60
2022/04/25 10:49:55;;;;;;;;;;;;;;;25.33;34.31;93568.03;5036726;28;8883;-60
2022/04/25 10:52:33;;;;;;;;;;;;;;;25.24;34.03;93564.94;5041799;28;7896;-60
2022/04/25 10:55:19;;;;;;;;;;;;;;;25.21;34.67;93571.47;5043690;28;7050;-60
2022/04/25 10:58:07;;;;;;;;;;;;;;;25.24;34.69;93567.69;5040323;28;7034;-61
2022/04/25 11:00:36;;;;;;;;;;;;;;;25.27;34.64;93574.91;5036192;28;8328;-60
2022/04/25 11:03:03;;;;;;;;;;;;;;;25.30;34.72;93566.31;5031483;28;9215;-61
2022/04/25 11:05:33;;;;;;;;;;;;;;;25.32;34.59;93572.03;5032622;28;7903;-60
2022/04/25 11:08:21;;;;;;;;;;;;;;;25.38;35.01;93578.16;5035532;28;8984;-61
2022/04/25 11:10:49;;;;;;;;;;;;;;;25.41;34.99;93587.38;5027555;28;7019;-61
2022/04/25 11:13:19;;;;;;;;;;;;;;;25.43;35.19;93591.13;5036718;28;7244;-61
2022/04/25 11:15:49;;;;;;;;;;;;;;;25.45;35.60;93579.56;5040915;28;9036;-61
2022/04/25 11:18:33;;;;;;;;;;;;;;;25.50;35.21;93591.75;5020931;28;7193;-61
2022/04/25 11:21:16;;;;;;;;;;;;;;;25.48;36.17;93592.28;5048336;28;9176;-61
2022/04/25 11:23:50;;;;;;;;;;;;;;;25.50;35.52;93595.25;5030858;28;7642;-61
2022/04/25 11:26:22;;;;;;;;;;;;;;;25.51;35.63;93594.00;5044375;28;7019;-62
2022/04/25 11:29:08;;;;;;;;;;;;;;;25.52;35.82;93589.22;5047458;28;9091;-61
2022/04/25 11:31:44;;;;;;;;;;;;;;;25.51;36.42;93588.50;5039167;28;9139;-61
2022/04/25 11:34:21;;;;;;;;;;;;;;;25.50;35.73;93587.00;5049288;28;9095;-61
2022/04/25 11:36:52;;;;;;;;;;;;;;;25.50;36.32;93589.75;5024352;28;8640;-61
2022/04/25 11:42:07;;;;;;;;;;;;;;;25.59;36.47;93597.59;5043995;28;9130;-61
2022/04/25 11:44:38;;;;;;;;;;;;;;;25.55;36.69;93588.91;5035623;28;7599;-61
2022/04/25 11:47:06;;;;;;;;;;;;;;;25.56;36.41;93597.91;5040935;28;8788;-61
2022/04/25 11:49:38;;;;;;;;;;;;;;;25.59;36.27;93596.84;5051433;28;6855;-61
2022/04/25 11:52:26;;;;;;;;;;;;;;;25.58;36.95;93598.13;5042630;28;9088;-61
2022/04/25 11:55:42;;;;;;;;;;;;;;;25.56;36.60;93609.66;5033996;28;7210;-61
2022/04/25 11:58:08;;;;;;;;;;;;;;;25.57;36.72;93604.91;4988734;28;7279;-60
2022/04/25 12:00:34;;;;;;;;;;;;;;;25.57;36.62;93618.66;4989712;28;7229;-60
2022/04/25 12:03:00;;;;;;;;;;;;;;;25.57;37.21;93607.66;4981820;28;8775;-59
2022/04/25 12:05:29;;;;;;;;;;;;;;;25.58;37.02;93612.63;5000973;28;7311;-60
2022/04/25 12:16:40;;;;;;;;;;;;;;;25.57;37.07;93619.41;5004011;28;8937;-61
2022/04/25 12:19:27;;;;;;;;;;;;;;;25.58;36.56;93626.38;4976128;28;9045;-60
2022/04/25 12:22:03;;;;;;;;;;;;;;;25.61;36.75;93617.09;4995779;28;9009;-61
2022/04/25 12:25:19;;;;;;;;;;;;;;;25.64;37.16;93613.28;5002398;28;9405;-61
2022/04/25 12:28:06;;;;;;;;;;;;;;;25.64;37.43;93610.53;4929996;28;7236;-61
2022/04/25 12:31:10;;;;;;;;;;;;;;;25.65;37.58;93612.00;4946891;28;9177;-60
2022/04/25 12:33:50;;;;;;;;;;;;;;;25.64;37.49;93624.28;4933416;28;8174;-60
2022/04/25 12:36:24;;;;;;;;;;;;;;;25.66;36.73;93627.25;4984144;28;7502;-60
2022/04/25 12:38:59;;;;;;;;;;;;;;;25.67;36.85;93611.44;4967204;28;7018;-61
2022/04/25 12:41:27;;;;;;;;;;;;;;;25.68;37.44;93619.22;4977041;28;7402;-60
2022/04/25 12:43:55;;;;;;;;;;;;;;;25.64;37.70;93621.53;4985318;28;9240;-60
2022/04/25 12:46:54;;;;;;;;;;;;;;;25.69;37.00;93626.19;4965242;28;9428;-61
2022/04/25 12:49:38;;;;;;;;;;;;;;;25.69;37.78;93620.69;4983292;28;9235;-61
2022/04/25 12:52:10;;;;;;;;;;;;;;;25.71;36.87;93633.94;4983686;28;7375;-61
2022/04/25 12:54:50;;;;;;;;;;;;;;;25.71;36.76;93629.16;4962785;28;7230;-61
2022/04/25 12:57:17;;;;;;;;;;;;;;;25.70;37.30;93621.44;4963653;28;9862;-61
2022/04/25 12:59:59;;;;;;;;;;;;;;;25.72;37.40;93627.88;4981909;28;6994;-59
2022/04/25 13:02:46;;;;;;;;;;;;;;;25.72;37.36;93627.88;5028615;28;6996;-59
2022/04/25 13:05:13;;;;;;;;;;;;;;;25.71;37.12;93623.63;5037632;28;8750;-59
2022/04/25 13:07:46;;;;;;;;;;;;;;;25.68;37.55;93632.97;5032771;28;7136;-59
2022/04/25 13:10:32;;;;;;;;;;;;;;;25.68;37.37;93629.47;5040838;28;8762;-60
2022/04/25 13:13:04;;;;;;;;;;;;;;;25.67;37.41;93634.25;5042901;28;7249;-61
2022/04/25 13:15:30;;;;;;;;;;;;;;;25.65;38.03;93636.78;5054396;28;7316;-60
2022/04/25 13:17:59;;;;;;;;;;;;;;;25.66;38.29;93632.78;5044838;28;7273;-60
2022/04/25 13:20:38;;;;;;;;;;;;;;;25.66;37.85;93638.28;5048232;28;8752;-60
2022/04/25 13:23:18;;;;;;;;;;;;;;;25.66;38.50;93635.53;5051026;28;9355;-61
2022/04/25 13:25:46;;;;;;;;;;;;;;;25.70;37.75;93637.94;5043321;28;7778;-61
2022/04/25 13:28:19;;;;;;;;;;;;;;;25.70;37.72;93637.94;5042290;28;9001;-61
2022/04/25 13:30:54;;;;;;;;;;;;;;;25.72;37.79;93646.41;5042654;28;7168;-61
2022/04/25 13:33:30;;;;;;;;;;;;;;;25.70;38.14;93640.69;5041423;28;8709;-61
2022/04/25 13:36:15;;;;;;;;;;;;;;;25.70;37.76;93635.94;5045720;28;7147;-61
2022/04/25 13:38:41;;;;;;;;;;;;;;;25.70;38.56;93637.94;5038471;28;9174;-61
2022/04/25 13:41:07;;;;;;;;;;;;;;;25.70;38.07;93641.44;5040946;28;9104;-61
2022/04/25 13:43:35;;;;;;;;;;;;;;;25.72;38.40;93635.41;5041924;28;7158;-61
2022/04/25 13:46:07;;;;;;;;;;;;;;;25.72;38.76;93625.13;5049890;28;7251;-61
2022/04/25 13:48:45;;;;;;;;;;;;;;;25.73;38.85;93625.88;5043269;28;7336;-61
2022/04/25 13:51:12;;;;;;;;;;;;;;;25.72;42.55;93625.13;5048312;28;8773;-61
2022/04/25 13:54:10;;;;;;;;;;;;;;;25.80;42.19;93628.72;5039029;28;9826;-61
2022/04/25 13:56:36;;;;;;;;;;;;;;;25.83;41.84;93627.69;4988529;28;7189;-61
2022/04/25 13:59:12;;;;;;;;;;;;;;;25.83;39.17;93621.41;5004399;28;7237;-61
2022/04/25 14:01:38;;;;;;;;;;;;;;;25.81;39.02;93616.44;5008069;28;9171;-61
2022/04/25 14:04:04;;;;;;;;;;;;;;;25.78;39.86;93617.50;5009761;28;7246;-61
2022/04/25 14:06:36;;;;;;;;;;;;;;;25.77;39.81;93627.06;5003500;28;9204;-61
2022/04/25 14:09:02;;;;;;;;;;;;;;;25.78;39.44;93625.75;4995523;28;8901;-61